• Join FlightAware (Why Join?)
  • Login
  • US Flag 
07:32PM EST


 

Airport Tracker/Info


-or-


 

Live Flight TrackerFlight Track Log ✈ ASQ5345 ✈ 03-May-2013 ✈ KATL - KSHV

Flight Track Log - Related Links

Times and Time Zones

All times are in EDT time to prevent confusion due to time zone crossing. See the ASQ5345 flight status page for this flight to view local times or setup timezone preferences in your user account.

Time Position Orientation Groundspeed Altitude Reporting Facility
EDT Latitude Longitude Course Direction KTS MPH feet Rate Location/Type
10:11PM 33.6500 -84.3667 59° Northeast 158 182 3,100  Level Atlanta TRACON
10:12PM 33.6833 -84.3000 59° Northeast 242 278 5,100 2,160 Climbing Atlanta TRACON
10:13PM 33.7500 -84.2833 12° North 304 350 7,700 2,340 Climbing Atlanta TRACON
10:14PM 33.8125 -84.3939 304° West 314 361 11,200 1,740 Climbing Atlanta Center
10:15PM 33.8100 -84.5064 268° West 323 372 12,300 1,020 Climbing Atlanta Center
10:16PM 33.7969 -84.6364 263° West 351 404 13,300 1,200 Climbing Atlanta Center
10:17PM 33.7714 -84.7511 255° West 364 419 14,700 1,500 Climbing Atlanta Center
10:18PM 33.7392 -84.8706 252° West 364 419 16,300 1,500 Climbing Atlanta Center
10:19PM 33.7092 -84.9903 253° West 375 432 17,700 1,260 Climbing Atlanta Center
10:20PM 33.6811 -85.1072 254° West 370 426 18,900 1,200 Climbing Atlanta Center
10:21PM 33.6528 -85.2242 254° West 375 432 20,100 1,020 Climbing Atlanta Center
10:22PM 33.6517 -85.3514 269° West 380 437 21,000 780 Climbing Atlanta Center
10:23PM 33.6525 -85.4664 271° West 380 437 21,700 720 Climbing Atlanta Center
10:24PM 33.6572 -85.5961 273° West 385 443 22,500 660 Climbing Atlanta Center
10:25PM 33.6575 -85.7308 270° West 390 449 23,100 600 Climbing Atlanta Center
10:26PM 33.6578 -85.8531 270° West 390 449 23,700 600 Climbing Atlanta Center
10:27PM 33.6600 -85.9881 271° West 390 449 24,300 600 Climbing Atlanta Center
10:28PM 33.6639 -86.1228 272° West 401 461 24,900 540 Climbing Atlanta Center
10:29PM 33.6636 -86.2603 270° West 406 467 25,400 540 Climbing Atlanta Center
10:30PM 33.6653 -86.4000 271° West 411 473 26,000 540 Climbing Atlanta Center
10:31PM 33.6644 -86.5397 270° West 417 480 26,500 540 Climbing Atlanta Center
10:32PM 33.6678 -86.6769 272° West 417 480 27,100 600 Climbing Atlanta Center
10:33PM 33.6692 -86.8144 271° West 422 486 27,800 660 Climbing Atlanta Center
10:34PM 33.6639 -86.9439 267° West 412 474 28,500 660 Climbing Atlanta Center
10:35PM 33.6483 -87.0758 262° West 406 467 29,200 540 Climbing Atlanta Center
10:37PM 33.6272 -87.2786 263° West 405 466 30,000 300 Climbing Memphis Center
10:38PM 33.6119 -87.4214 263° West 405 466 30,000  Level Memphis Center
10:39PM 33.5964 -87.5592 262° West 411 473 30,000  Level Memphis Center
10:40PM 33.5786 -87.6942 261° West 411 473 30,000  Level Memphis Center
10:41PM 33.5644 -87.8244 263° West 411 473 30,000  Level Memphis Center
10:42PM 33.5503 -87.9494 262° West 401 461 30,000  Level Memphis Center
10:43PM 33.5358 -88.0744 262° West 390 449 30,000  Level Memphis Center
10:44PM 33.5444 -88.1989 275° West 380 437 30,000  Level Memphis Center
10:45PM 33.5842 -88.3250 291° West 387 445 30,000  Level Memphis Center
10:46PM 33.6092 -88.4542 283° West 392 451 30,000  Level Memphis Center
10:47PM 33.5983 -88.5764 264° West 383 441 30,000 60 Level Memphis Center
10:48PM 33.5878 -88.7089 265° West 389 448 30,200 480 Climbing Memphis Center
10:49PM 33.5831 -88.8411 268° West 389 448 31,000 660 Climbing Memphis Center
10:50PM 33.5722 -88.9686 264° West 389 448 31,600 480 Climbing Memphis Center
10:51PM 33.5631 -89.0983 265° West 389 448 32,000 180 Climbing Memphis Center
10:52PM 33.5539 -89.2256 265° West 389 448 32,000  Level Memphis Center
10:53PM 33.5406 -89.3628 263° West 395 455 32,000  Level Memphis Center
10:54PM 33.5289 -89.4950 264° West 401 461 32,000  Level Memphis Center
10:55PM 33.5194 -89.6297 265° West 411 473 32,000  Level Memphis Center
10:56PM 33.5075 -89.7642 264° West 411 473 32,000  Level Memphis Center
10:57PM 33.4978 -89.8889 265° West 411 473 32,000  Level Memphis Center
10:58PM 33.4878 -90.0233 265° West 411 473 32,000  Level Memphis Center
10:59PM 33.4733 -90.1606 263° West 416 479 32,000  Level Memphis Center
11:00PM 33.4589 -90.3000 263° West 416 479 32,000  Level Memphis Center
11:01PM 33.4358 -90.4319 258° West 416 479 32,000  Level Memphis Center
11:02PM 33.4108 -90.5614 257° West 410 472 32,000  Level Memphis Center
11:03PM 33.3856 -90.6906 257° West 410 472 32,000  Level Memphis Center
11:04PM 33.3642 -90.8200 259° West 410 472 32,000  Level Memphis Center
11:05PM 33.3406 -90.9492 258° West 410 472 32,000  Level Memphis Center
11:06PM 33.3150 -91.0781 257° West 410 472 32,000  Level Memphis Center
11:07PM 33.2911 -91.2047 257° West 405 466 32,000  Level Memphis Center
11:08PM 33.2672 -91.3336 258° West 405 466 32,000  Level Memphis Center
11:09PM 33.2361 -91.5253 259° West 389 448 32,000  Level Fort Worth Center
11:10PM 33.2147 -91.6508 259° West 389 448 32,000  Level Fort Worth Center
11:11PM 33.1872 -91.7817 256° West 396 456 32,000 -420 Level Fort Worth Center
11:12PM 33.1636 -91.9097 258° West 401 461 31,200 -900 Descending Fort Worth Center
11:13PM 33.1361 -92.0453 256° West 401 461 30,200 -1,020 Descending Fort Worth Center
11:14PM 33.1103 -92.1708 256° West 406 467 29,200 -1,020 Descending Fort Worth Center
11:15PM 33.0839 -92.2939 256° West 396 456 28,200 -1,020 Descending Fort Worth Center
11:16PM 33.0636 -92.4117 258° West 385 443 27,200 -1,020 Descending Fort Worth Center
11:17PM 33.0389 -92.5244 255° West 367 422 26,200 -1,500 Descending Fort Worth Center
11:18PM 33.0161 -92.6397 257° West 360 414 24,300 -2,040 Descending Fort Worth Center
11:19PM 32.9928 -92.7350 254° West 365 420 22,800 -2,040 Descending Fort Worth Center
11:19PM 32.9875 -92.7675 259° West 360 414 22,300 -2,100 Descending Fort Worth Center
11:20PM 32.9444 -92.8439 236° Southwest 381 438 20,700 -2,100 Descending Fort Worth Center
11:20PM 32.9331 -92.8717 244° Southwest 366 421 20,200 -2,460 Descending Fort Worth Center
11:21PM 32.8894 -92.9383 232° Southwest 341 392 18,200 -2,400 Descending Fort Worth Center
11:21PM 32.8756 -92.9611 234° Southwest 360 414 17,800 -2,460 Descending Fort Worth Center
11:22PM 32.8322 -93.0300 233° Southwest 321 369 15,700 -2,640 Descending Fort Worth Center
11:22PM 32.8203 -93.0481 232° Southwest 348 400 15,200 -2,520 Descending Fort Worth Center
11:23PM 32.7747 -93.1194 233° Southwest 336 387 13,200 -2,520 Descending Fort Worth Center
11:23PM 32.7650 -93.1372 237° Southwest 343 395 12,700 -2,220 Descending Fort Worth Center
11:24PM 32.7194 -93.2108 234° Southwest 338 389 11,000 -2,040 Descending Fort Worth Center
11:24PM 32.7072 -93.2214 216° Southwest 343 395 10,700 -1,200 Descending Fort Worth Center
11:25PM 32.6586 -93.2681 219° Southwest 274 315 9,800 -1,200 Descending Fort Worth Center
11:25PM 32.6486 -93.2758 213° Southwest 316 364 9,500 -1,980 Descending Fort Worth Center
11:26PM 32.5936 -93.3203 214° Southwest 264 304 7,800 -2,100 Descending Fort Worth Center
11:27PM 32.5328 -93.3725 216° Southwest 270 311 5,800 -2,040 Descending Fort Worth Center
11:28PM 32.4636 -93.4322 216° Southwest 268 308 3,500 -1,380 Descending Fort Worth Center
11:29PM 32.4047 -93.4864 218° Southwest 261 300 3,000 -300 Descending Fort Worth Center
11:30PM 32.3861 -93.5611 254° West 251 289 3,000 -180 Level Fort Worth Center
11:31PM 32.3739 -93.6403 260° West 228 262 2,700 -600 Descending Fort Worth Center
11:32PM 32.3675 -93.7069 264° West 193 222 1,900 -480 Descending Fort Worth Center
11:33PM 32.3733 -93.7583 278° West 168 193 1,800 -420 Descending Fort Worth Center
11:34PM 32.4014 -93.7917 315° West 124 143 1,100 -720 Descending Fort Worth Center
11:36PM 32.4333 -93.8167 267° West  Level FlightAware Approximate
11:43PM 32.4466 -93.8256 267° West  Level Estimated